createdAt,value
2023-05-21T00:01:39.414Z,3.13
2023-05-21T00:04:09.409Z,3.10
2023-05-21T00:06:37.210Z,3.53
2023-05-21T00:09:05.906Z,2.90
2023-05-21T00:11:33.381Z,3.25
2023-05-21T00:14:00.608Z,3.28
2023-05-21T00:16:28.131Z,3.22
2023-05-21T00:18:55.616Z,2.88
2023-05-21T00:21:23.044Z,3.20
2023-05-21T00:23:50.364Z,3.15
2023-05-21T00:26:17.533Z,2.85
2023-05-21T00:28:45.601Z,3.63
2023-05-21T00:31:13.042Z,3.53
2023-05-21T00:33:40.453Z,3.83
2023-05-21T00:36:07.842Z,3.03
2023-05-21T00:38:35.310Z,3.17
2023-05-21T00:41:03.518Z,3.30
2023-05-21T00:43:32.661Z,3.88
2023-05-21T00:46:00.187Z,3.38
2023-05-21T00:48:27.652Z,3.63
2023-05-21T00:50:54.978Z,3.58
2023-05-21T00:53:22.657Z,3.42
2023-05-21T00:55:50.970Z,4.15
2023-05-21T00:58:18.643Z,3.58
2023-05-21T01:00:46.992Z,3.90
2023-05-21T01:03:14.812Z,4.05
2023-05-21T01:05:45.206Z,4.75
2023-05-21T01:08:12.861Z,4.07
2023-05-21T01:10:40.180Z,4.22
2023-05-21T01:13:08.292Z,3.97
2023-05-21T01:15:38.008Z,4.22
2023-05-21T01:18:06.185Z,4.20
2023-05-21T01:20:33.778Z,4.15
2023-05-21T01:23:02.462Z,4.70
2023-05-21T01:25:31.390Z,4.68
2023-05-21T01:27:58.932Z,4.88
2023-05-21T01:30:27.163Z,4.53
2023-05-21T01:33:03.932Z,4.00
2023-05-21T01:35:33.451Z,3.90
2023-05-21T01:38:18.826Z,4.10
2023-05-21T01:40:52.179Z,4.13
2023-05-21T01:43:20.868Z,4.60
2023-05-21T01:45:52.510Z,4.55
2023-05-21T01:48:20.168Z,4.68
2023-05-21T01:50:50.085Z,4.95
2023-05-21T01:53:17.736Z,5.05
2023-05-21T01:55:45.989Z,4.25
2023-05-21T01:58:13.369Z,4.28
2023-05-21T02:00:40.641Z,4.72
2023-05-21T02:03:08.972Z,5.00
2023-05-21T02:05:36.685Z,4.60
2023-05-21T02:08:05.481Z,5.22
2023-05-21T02:10:32.928Z,5.40
2023-05-21T02:13:00.283Z,4.65
2023-05-21T02:15:27.530Z,4.82
2023-05-21T02:17:55.601Z,4.15
2023-05-21T02:20:22.988Z,4.50
2023-05-21T02:22:50.502Z,4.85
2023-05-21T02:25:19.831Z,4.40
2023-05-21T02:27:48.389Z,5.18
2023-05-21T02:30:16.276Z,4.60
2023-05-21T02:32:45.026Z,5.32
2023-05-21T02:35:13.310Z,4.80
2023-05-21T02:37:41.294Z,4.60
2023-05-21T02:40:10.088Z,4.72
2023-05-21T02:42:39.995Z,4.75
2023-05-21T02:45:11.143Z,4.10
2023-05-21T02:47:40.836Z,4.40
2023-05-21T02:50:09.337Z,4.07
2023-05-21T02:52:43.814Z,4.32
2023-05-21T02:55:11.069Z,3.90
2023-05-21T02:57:38.322Z,4.15
2023-05-21T03:00:06.353Z,4.88
2023-05-21T03:02:34.759Z,4.93
2023-05-21T03:05:02.947Z,4.25
2023-05-21T03:07:30.695Z,4.00
2023-05-21T03:09:58.166Z,4.95
2023-05-21T03:12:25.683Z,4.35
2023-05-21T03:14:53.260Z,4.78
2023-05-21T03:17:22.267Z,3.75
2023-05-21T03:19:49.521Z,4.00
2023-05-21T03:22:17.437Z,4.72
2023-05-21T03:24:46.330Z,4.20
2023-05-21T03:27:14.044Z,4.22
2023-05-21T03:29:43.305Z,4.05
2023-05-21T03:32:13.527Z,4.43
2023-05-21T03:34:41.415Z,4.00
2023-05-21T03:37:09.069Z,3.55
2023-05-21T03:39:37.177Z,4.18
2023-05-21T03:42:06.117Z,4.10
2023-05-21T03:44:40.451Z,4.18
2023-05-21T03:47:32.087Z,4.07
2023-05-21T03:50:02.788Z,4.05
2023-05-21T03:52:31.321Z,3.63
2023-05-21T03:54:58.777Z,3.80
2023-05-21T03:57:26.148Z,4.07
2023-05-21T03:59:53.513Z,3.85
2023-05-21T04:02:21.953Z,3.95
2023-05-21T04:04:51.884Z,4.28
2023-05-21T04:07:20.055Z,4.50
2023-05-21T04:09:47.318Z,3.78
2023-05-21T04:12:14.734Z,3.90
2023-05-21T04:14:42.445Z,3.80
2023-05-21T04:17:12.772Z,3.85
2023-05-21T04:19:40.868Z,3.38
2023-05-21T04:22:11.131Z,4.32
2023-05-21T04:24:39.358Z,3.63
2023-05-21T04:27:14.211Z,4.60
2023-05-21T04:29:44.628Z,3.78
2023-05-21T04:32:15.209Z,3.92
2023-05-21T04:34:42.981Z,3.47
2023-05-21T04:37:10.579Z,3.85
2023-05-21T04:39:37.798Z,3.92
2023-05-21T04:42:05.659Z,3.60
2023-05-21T04:44:33.763Z,4.35
2023-05-21T04:47:02.390Z,3.35
2023-05-21T04:49:30.433Z,3.33
2023-05-21T04:51:57.714Z,3.22
2023-05-21T04:54:25.090Z,4.13
2023-05-21T04:56:52.338Z,3.83
2023-05-21T04:59:20.113Z,3.63
2023-05-21T05:01:47.454Z,2.88
2023-05-21T05:04:14.723Z,3.28
2023-05-21T05:06:42.014Z,3.70
2023-05-21T05:09:09.246Z,3.20
2023-05-21T05:11:36.916Z,3.00
2023-05-21T05:14:04.951Z,2.92
2023-05-21T05:16:32.683Z,4.22
2023-05-21T05:19:00.143Z,3.70
2023-05-21T05:21:27.557Z,4.07
2023-05-21T05:23:55.001Z,3.70
2023-05-21T05:26:26.725Z,3.85
2023-05-21T05:28:54.113Z,2.90
2023-05-21T05:31:21.505Z,2.70
2023-05-21T05:33:49.251Z,3.00
2023-05-21T05:36:16.736Z,3.03
2023-05-21T05:38:44.439Z,2.70
2023-05-21T05:41:11.953Z,2.63
2023-05-21T05:43:39.900Z,3.10
2023-05-21T05:46:07.246Z,3.05
2023-05-21T05:48:34.617Z,2.70
2023-05-21T05:51:02.587Z,2.90
2023-05-21T05:53:32.546Z,2.85
2023-05-21T05:56:00.224Z,2.30
2023-05-21T05:58:29.937Z,2.97
2023-05-21T06:01:06.805Z,3.25
2023-05-21T06:03:34.266Z,2.63
2023-05-21T06:06:11.197Z,3.00
2023-05-21T06:08:40.640Z,2.40
2023-05-21T06:11:08.018Z,2.88
2023-05-21T06:13:35.727Z,2.70
2023-05-21T06:16:04.445Z,3.42
2023-05-21T06:18:32.754Z,3.20
2023-05-21T06:21:00.211Z,3.58
2023-05-21T06:23:28.373Z,3.20
2023-05-21T06:25:55.869Z,3.13
2023-05-21T06:28:23.410Z,2.95
2023-05-21T06:30:51.756Z,2.72
2023-05-21T06:33:20.027Z,2.97
2023-05-21T06:35:47.412Z,3.03
2023-05-21T06:38:14.844Z,2.97
2023-05-21T06:40:44.676Z,3.30
2023-05-21T06:43:16.396Z,3.30
2023-05-21T06:46:09.592Z,3.22
2023-05-21T06:48:41.111Z,3.70
2023-05-21T06:51:08.501Z,3.35
2023-05-21T06:53:36.086Z,3.33
2023-05-21T06:56:05.032Z,2.80
2023-05-21T06:58:54.549Z,3.00
2023-05-21T07:01:22.902Z,3.03
2023-05-21T07:03:50.220Z,3.20
2023-05-21T07:06:17.964Z,3.20
2023-05-21T07:08:46.203Z,3.08
2023-05-21T07:11:13.696Z,2.90
2023-05-21T07:13:41.386Z,2.88
2023-05-21T07:16:08.919Z,3.33
2023-05-21T07:18:38.759Z,3.40
2023-05-21T07:21:06.190Z,3.15
2023-05-21T07:23:33.683Z,3.03
2023-05-21T07:26:00.943Z,2.90
2023-05-21T07:28:28.434Z,2.92
2023-05-21T07:30:56.236Z,2.92
2023-05-21T07:33:31.171Z,2.83
2023-05-21T07:35:58.486Z,3.10
2023-05-21T07:38:26.404Z,2.80
2023-05-21T07:40:53.637Z,2.40
2023-05-21T07:43:21.527Z,4.43
2023-05-21T07:45:48.892Z,3.17
2023-05-21T07:48:16.880Z,3.00
2023-05-21T07:50:58.866Z,3.92
2023-05-21T07:53:27.187Z,3.67
2023-05-21T07:55:55.526Z,3.35
2023-05-21T07:58:27.293Z,2.78
2023-05-21T08:00:54.643Z,2.88
2023-05-21T08:03:22.069Z,3.00
2023-05-21T08:05:51.020Z,3.00
2023-05-21T08:08:19.758Z,3.28
2023-05-21T08:10:48.103Z,3.53
2023-05-21T08:13:16.785Z,3.55
2023-05-21T08:15:44.471Z,2.80
2023-05-21T08:18:12.704Z,3.08
2023-05-21T08:20:43.038Z,2.92
2023-05-21T08:23:11.352Z,3.53
2023-05-21T08:25:43.523Z,3.08
2023-05-21T08:28:11.600Z,4.22
2023-05-21T08:30:39.025Z,3.20
2023-05-21T08:33:06.488Z,3.38
2023-05-21T08:35:34.823Z,3.08
2023-05-21T08:38:18.878Z,2.85
2023-05-21T08:40:59.178Z,3.30
2023-05-21T08:43:29.830Z,3.30
2023-05-21T08:46:03.861Z,2.60
2023-05-21T08:48:36.672Z,2.90
2023-05-21T08:51:06.408Z,3.85
2023-05-21T08:53:38.874Z,3.20
2023-05-21T08:58:47.701Z,3.33
2023-05-21T09:01:19.609Z,3.08
2023-05-21T09:03:54.436Z,3.28
2023-05-21T09:06:26.102Z,3.33
2023-05-21T09:09:02.986Z,2.70
2023-05-21T09:11:38.112Z,2.92
2023-05-21T09:14:06.229Z,3.25
2023-05-21T09:16:50.250Z,3.35
2023-05-21T09:19:22.268Z,3.00
2023-05-21T09:21:52.988Z,3.10
2023-05-21T09:24:23.149Z,3.30
2023-05-21T09:26:51.383Z,3.50
2023-05-21T09:29:19.727Z,2.65
2023-05-21T09:31:47.471Z,3.30
2023-05-21T09:34:15.356Z,2.72
2023-05-21T09:36:44.324Z,3.20
2023-05-21T09:39:16.606Z,3.65
2023-05-21T09:41:45.381Z,3.63
2023-05-21T09:44:13.575Z,2.50
2023-05-21T09:46:42.264Z,3.17
2023-05-21T09:49:24.924Z,3.28
2023-05-21T09:51:57.176Z,3.22
2023-05-21T09:54:26.910Z,3.28
2023-05-21T09:56:54.205Z,2.93
2023-05-21T09:59:22.077Z,3.22
2023-05-21T10:01:53.508Z,2.90
2023-05-21T10:04:23.069Z,3.13
2023-05-21T10:06:51.149Z,3.38
2023-05-21T10:09:20.069Z,3.53
2023-05-21T10:11:49.530Z,3.20
2023-05-21T10:14:20.286Z,3.22
2023-05-21T10:16:48.449Z,3.17
2023-05-21T10:19:16.200Z,3.30
2023-05-21T10:21:45.001Z,2.97
2023-05-21T10:24:13.751Z,3.85
2023-05-21T10:26:41.415Z,2.78
2023-05-21T10:29:09.274Z,3.08
2023-05-21T10:31:38.708Z,3.35
2023-05-21T10:34:06.414Z,3.20
2023-05-21T10:36:36.453Z,3.60
2023-05-21T10:39:04.371Z,3.55
2023-05-21T10:41:43.344Z,3.90
2023-05-21T10:44:17.481Z,3.92
2023-05-21T10:47:02.194Z,4.07
2023-05-21T10:49:54.873Z,3.90
2023-05-21T10:52:33.805Z,3.65
2023-05-21T10:55:17.750Z,3.78
2023-05-21T10:58:12.658Z,3.35
2023-05-21T11:00:40.779Z,3.92
2023-05-21T11:03:09.114Z,3.90
2023-05-21T11:05:56.775Z,3.42
2023-05-21T11:08:24.014Z,3.88
2023-05-21T11:10:55.358Z,3.72
2023-05-21T11:13:23.656Z,4.32
2023-05-21T11:16:05.193Z,4.07
2023-05-21T11:18:55.097Z,4.30
2023-05-21T11:21:22.930Z,4.38
2023-05-21T11:24:01.399Z,4.60
2023-05-21T11:26:47.812Z,4.40
2023-05-21T11:29:15.382Z,4.30
2023-05-21T11:31:47.212Z,5.13
2023-05-21T11:34:28.447Z,5.32
2023-05-21T11:37:17.920Z,5.18
2023-05-21T11:39:45.950Z,4.60
2023-05-21T11:42:13.753Z,4.72
2023-05-21T11:44:45.516Z,4.68
2023-05-21T11:47:17.971Z,5.30
2023-05-21T11:49:46.175Z,4.70
2023-05-21T11:52:14.500Z,5.60
2023-05-21T11:54:48.592Z,4.43
2023-05-21T11:57:18.565Z,5.00
2023-05-21T11:59:46.989Z,4.70
2023-05-21T12:02:18.749Z,5.10
2023-05-21T12:04:50.596Z,4.60
2023-05-21T12:07:19.499Z,5.07
2023-05-21T12:09:49.308Z,4.97
2023-05-21T12:12:18.425Z,5.10
2023-05-21T12:14:47.966Z,5.78
2023-05-21T12:17:23.554Z,5.25
2023-05-21T12:19:53.429Z,5.28
2023-05-21T12:22:21.512Z,5.97
2023-05-21T12:24:48.975Z,4.97
2023-05-21T12:27:18.417Z,5.43
2023-05-21T12:29:51.651Z,6.18
2023-05-21T12:32:21.001Z,6.75
2023-05-21T12:34:51.512Z,5.68
2023-05-21T12:39:52.368Z,6.47
2023-05-21T12:42:30.753Z,6.10
2023-05-21T12:44:58.632Z,6.65
2023-05-21T12:47:27.558Z,6.50
2023-05-21T12:50:01.631Z,6.70
2023-05-21T12:52:29.525Z,7.03
2023-05-21T12:54:57.936Z,6.85
2023-05-21T12:57:43.928Z,6.43
2023-05-21T13:00:14.890Z,6.93
2023-05-21T13:02:44.434Z,7.55
2023-05-21T13:05:18.915Z,6.75
2023-05-21T13:07:46.776Z,7.50
2023-05-21T13:10:16.610Z,7.85
2023-05-21T13:12:45.113Z,7.22
2023-05-21T13:15:12.659Z,6.18
2023-05-21T13:17:40.153Z,7.28
2023-05-21T13:20:12.600Z,8.15
2023-05-21T13:22:47.766Z,7.00
2023-05-21T13:25:22.441Z,7.45
2023-05-21T13:27:51.267Z,7.05
2023-05-21T13:30:19.776Z,6.75
2023-05-21T13:32:47.683Z,6.90
2023-05-21T13:35:16.852Z,6.78
2023-05-21T13:37:45.006Z,9.82
2023-05-21T13:40:17.532Z,8.90
2023-05-21T13:42:46.662Z,8.60
2023-05-21T13:45:18.739Z,9.18
2023-05-21T13:47:47.552Z,8.80
2023-05-21T13:50:16.099Z,10.70
2023-05-21T13:52:43.398Z,9.93
2023-05-21T13:55:11.108Z,10.48
2023-05-21T13:57:38.674Z,11.60
2023-05-21T14:00:09.225Z,11.68
2023-05-21T14:02:37.698Z,11.88
2023-05-21T14:05:05.486Z,10.57
2023-05-21T14:07:32.897Z,10.57
2023-05-21T14:10:00.789Z,12.63
2023-05-21T14:12:29.277Z,12.27
2023-05-21T14:14:57.194Z,11.10
2023-05-21T14:17:24.732Z,11.93
2023-05-21T14:19:52.428Z,13.50
2023-05-21T14:22:19.677Z,11.85
2023-05-21T14:24:47.329Z,12.52
2023-05-21T14:27:15.887Z,13.40
2023-05-21T14:29:43.252Z,12.57
2023-05-21T14:32:10.599Z,12.77
2023-05-21T14:34:39.070Z,14.35
2023-05-21T14:37:06.367Z,13.27
2023-05-21T14:39:33.641Z,12.48
2023-05-21T14:42:04.738Z,13.30
2023-05-21T14:44:32.638Z,12.93
2023-05-21T14:47:00.308Z,13.02
2023-05-21T14:49:27.753Z,12.18
2023-05-21T14:51:55.052Z,13.30
2023-05-21T14:54:22.390Z,13.30
2023-05-21T14:56:49.637Z,12.52
2023-05-21T14:59:16.875Z,12.07
2023-05-21T15:01:44.469Z,13.40
2023-05-21T15:04:11.947Z,13.10
2023-05-21T15:06:39.403Z,13.88
2023-05-21T15:09:06.789Z,13.60
2023-05-21T15:11:34.598Z,13.48
2023-05-21T15:14:01.991Z,13.32
2023-05-21T15:16:29.551Z,13.35
2023-05-21T15:18:57.176Z,12.10
2023-05-21T15:21:27.296Z,13.40
2023-05-21T15:23:55.553Z,13.73
2023-05-21T15:26:25.411Z,11.98
2023-05-21T15:28:53.099Z,11.45
2023-05-21T15:31:20.685Z,11.75
2023-05-21T15:33:48.085Z,12.13
2023-05-21T15:36:15.682Z,13.80
2023-05-21T15:38:42.969Z,13.00
2023-05-21T15:41:10.519Z,13.60
2023-05-21T15:43:38.469Z,11.45
2023-05-21T15:46:06.027Z,12.93
2023-05-21T15:48:33.394Z,12.50
2023-05-21T15:51:00.671Z,12.77
2023-05-21T15:53:27.961Z,12.88
2023-05-21T15:55:56.684Z,13.52
2023-05-21T15:58:23.981Z,12.88
2023-05-21T16:00:51.308Z,13.63
2023-05-21T16:03:18.821Z,12.52
2023-05-21T16:05:46.222Z,13.85
2023-05-21T16:08:13.616Z,13.13
2023-05-21T16:10:40.993Z,13.30
2023-05-21T16:13:08.429Z,13.23
2023-05-21T16:15:37.612Z,13.23
2023-05-21T16:18:05.295Z,12.90
2023-05-21T16:20:33.433Z,13.18
2023-05-21T16:23:01.016Z,12.93
2023-05-21T16:25:28.455Z,12.40
2023-05-21T16:27:55.844Z,12.50
2023-05-21T16:30:24.167Z,12.25
2023-05-21T16:32:51.656Z,12.65
2023-05-21T16:35:19.246Z,12.98
2023-05-21T16:37:46.751Z,12.07
2023-05-21T16:40:14.117Z,12.02
2023-05-21T16:42:41.475Z,13.38
2023-05-21T16:45:09.180Z,13.48
2023-05-21T16:47:36.550Z,15.45
2023-05-21T16:50:05.199Z,14.52
2023-05-21T16:52:32.573Z,13.85
2023-05-21T16:54:59.841Z,14.80
2023-05-21T16:57:27.039Z,15.50
2023-05-21T16:59:54.368Z,14.63
2023-05-21T17:02:21.801Z,14.93
2023-05-21T17:04:49.111Z,13.73
2023-05-21T17:07:16.697Z,14.73
2023-05-21T17:09:43.908Z,13.88
2023-05-21T17:12:11.172Z,14.57
2023-05-21T17:14:39.818Z,14.43
2023-05-21T17:17:07.143Z,15.10
2023-05-21T17:19:34.553Z,14.32
2023-05-21T17:22:01.883Z,14.93
2023-05-21T17:24:30.906Z,15.88
2023-05-21T17:26:58.285Z,15.43
2023-05-21T17:29:25.929Z,14.32
2023-05-21T17:31:53.366Z,14.25
2023-05-21T17:34:21.160Z,14.55
2023-05-21T17:36:48.452Z,14.95
2023-05-21T17:39:15.769Z,14.52
2023-05-21T17:41:43.127Z,14.63
2023-05-21T17:44:11.406Z,14.60
2023-05-21T17:46:38.708Z,14.40
2023-05-21T17:49:08.272Z,13.70
2023-05-21T17:51:36.706Z,15.20
2023-05-21T17:54:04.614Z,14.77
2023-05-21T17:56:38.888Z,13.93
2023-05-21T17:59:10.178Z,13.95
2023-05-21T18:01:39.400Z,14.43
2023-05-21T18:04:12.507Z,13.55
2023-05-21T18:06:40.138Z,15.40
2023-05-21T18:09:08.018Z,13.80
2023-05-21T18:11:36.108Z,14.00
2023-05-21T18:14:06.219Z,13.35
2023-05-21T18:16:33.515Z,14.90
2023-05-21T18:19:05.972Z,14.15
2023-05-21T18:21:37.455Z,15.20
2023-05-21T18:24:06.486Z,14.68
2023-05-21T18:26:33.861Z,14.23
2023-05-21T18:29:01.682Z,13.52
2023-05-21T18:31:29.084Z,14.88
2023-05-21T18:33:56.716Z,14.20
2023-05-21T18:36:24.109Z,14.60
2023-05-21T18:38:52.537Z,14.77
2023-05-21T18:41:21.420Z,14.82
2023-05-21T18:43:48.839Z,13.73
2023-05-21T18:46:19.485Z,14.25
2023-05-21T18:48:48.845Z,13.27
2023-05-21T18:51:16.211Z,12.48
2023-05-21T18:53:43.420Z,13.40
2023-05-21T18:56:10.813Z,12.35
2023-05-21T18:58:38.617Z,12.52
2023-05-21T19:01:06.833Z,12.00
2023-05-21T19:03:34.092Z,13.50
2023-05-21T19:06:01.549Z,12.65
2023-05-21T19:08:28.831Z,11.63
2023-05-21T19:10:56.138Z,12.02
2023-05-21T19:13:23.720Z,12.75
2023-05-21T19:15:51.619Z,12.60
2023-05-21T19:18:18.903Z,12.25
2023-05-21T19:20:46.183Z,13.38
2023-05-21T19:23:13.718Z,13.15
2023-05-21T19:25:41.734Z,13.45
2023-05-21T19:28:09.044Z,13.55
2023-05-21T19:30:36.626Z,12.98
2023-05-21T19:33:04.081Z,12.93
2023-05-21T19:35:31.532Z,14.10
2023-05-21T19:38:00.624Z,13.38
2023-05-21T19:40:30.464Z,12.13
2023-05-21T19:42:57.909Z,12.10
2023-05-21T19:45:25.878Z,11.93
2023-05-21T19:47:53.330Z,12.77
2023-05-21T19:50:20.679Z,12.57
2023-05-21T19:52:48.022Z,11.95
2023-05-21T19:55:20.260Z,12.38
2023-05-21T19:57:47.774Z,13.60
2023-05-21T20:00:15.821Z,12.57
2023-05-21T20:02:43.116Z,12.60
2023-05-21T20:05:10.519Z,12.20
2023-05-21T20:07:43.926Z,13.25
2023-05-21T20:10:11.438Z,12.57
2023-05-21T20:12:38.730Z,13.32
2023-05-21T20:15:07.110Z,13.95
2023-05-21T20:17:36.213Z,12.88
2023-05-21T20:20:11.214Z,14.45
2023-05-21T20:22:38.816Z,13.35
2023-05-21T20:25:08.722Z,14.05
2023-05-21T20:27:38.880Z,13.50
2023-05-21T20:30:07.824Z,14.50
2023-05-21T20:32:37.909Z,13.55
2023-05-21T20:35:09.084Z,14.50
2023-05-21T20:37:37.045Z,13.88
2023-05-21T20:40:06.833Z,14.27
2023-05-21T20:42:34.938Z,13.60
2023-05-21T20:45:03.089Z,13.80
2023-05-21T20:47:30.965Z,15.18
2023-05-21T20:50:03.668Z,14.98
2023-05-21T20:52:31.958Z,14.35
2023-05-21T20:54:59.742Z,14.77
2023-05-21T20:57:27.548Z,15.07
2023-05-21T20:59:55.144Z,13.23
2023-05-21T21:02:23.330Z,13.98
2023-05-21T21:04:52.022Z,16.13
2023-05-21T21:07:19.845Z,16.05
2023-05-21T21:09:49.251Z,14.48
2023-05-21T21:14:46.889Z,16.73
2023-05-21T21:17:14.232Z,14.45
2023-05-21T21:19:41.566Z,16.52
2023-05-21T21:22:08.951Z,14.45
2023-05-21T21:24:36.245Z,16.50
2023-05-21T21:27:06.917Z,16.48
2023-05-21T21:29:34.421Z,16.67
2023-05-21T21:32:01.901Z,16.20
2023-05-21T21:34:29.717Z,15.50
2023-05-21T21:36:57.438Z,15.18
2023-05-21T21:39:26.232Z,14.90
2023-05-21T21:41:53.686Z,16.02
2023-05-21T21:44:21.356Z,15.88
2023-05-21T21:46:48.968Z,14.88
2023-05-21T21:49:19.199Z,15.77
2023-05-21T21:51:46.675Z,15.93
2023-05-21T21:54:14.189Z,16.05
2023-05-21T21:56:41.765Z,14.98
2023-05-21T21:59:09.239Z,15.07
2023-05-21T22:01:36.940Z,16.10
2023-05-21T22:04:04.513Z,15.45
2023-05-21T22:06:32.065Z,16.95
2023-05-21T22:09:00.564Z,15.88
2023-05-21T22:11:28.439Z,16.35
2023-05-21T22:13:56.273Z,16.73
2023-05-21T22:16:27.543Z,17.48
2023-05-21T22:18:58.121Z,16.60
2023-05-21T22:21:29.590Z,16.80
2023-05-21T22:23:57.172Z,16.08
2023-05-21T22:26:24.559Z,17.05
2023-05-21T22:28:51.920Z,16.08
2023-05-21T22:31:19.429Z,16.73
2023-05-21T22:33:47.188Z,16.30
2023-05-21T22:36:14.548Z,16.83
2023-05-21T22:38:43.565Z,15.30
2023-05-21T22:41:11.625Z,17.85
2023-05-21T22:43:39.020Z,15.40
2023-05-21T22:46:06.583Z,17.33
2023-05-21T22:48:34.684Z,18.40
2023-05-21T22:51:02.478Z,16.98
2023-05-21T22:53:29.984Z,15.95
2023-05-21T22:55:58.525Z,17.42
2023-05-21T22:58:26.133Z,16.10
2023-05-21T23:00:53.542Z,18.98
2023-05-21T23:03:20.896Z,17.55
2023-05-21T23:05:48.302Z,17.70
2023-05-21T23:08:15.788Z,17.02
2023-05-21T23:10:43.318Z,17.42
2023-05-21T23:13:12.787Z,17.27
2023-05-21T23:15:40.264Z,16.60
2023-05-21T23:18:08.718Z,16.98
2023-05-21T23:20:36.861Z,17.30
2023-05-21T23:23:04.351Z,18.27
2023-05-21T23:25:31.879Z,16.95
2023-05-21T23:27:59.579Z,16.67
2023-05-21T23:30:27.026Z,16.42
2023-05-21T23:32:54.525Z,17.75
2023-05-21T23:35:21.998Z,17.10
2023-05-21T23:37:49.323Z,18.00
2023-05-21T23:40:16.729Z,16.92
2023-05-21T23:42:44.268Z,17.52
2023-05-21T23:45:11.704Z,16.45
2023-05-21T23:47:39.143Z,17.02
2023-05-21T23:50:07.465Z,14.85
2023-05-21T23:52:35.489Z,16.13
2023-05-21T23:55:03.234Z,17.80
2023-05-21T23:57:33.081Z,18.70
